Latest Weather Observations for Kuitpo

IDS60801

Issued at 5:11 am CDT Wednesday 13 November 2019 (issued every 10 minutes, with the page automatically refreshed every 10 minutes)

About weather observations | Map of weather stations | Latest weather observations for SA | Other Formats
Station Details ID: 023887 Name: KUITPO FOREST RESERVE Lat: -35.17 Lon: 138.68 Height: 365.0 m
Data from the previous 72 hours. | See also: Recent months at Kuitpo
Date/Time
CDT
Temp
°C
App
Temp
°C
Dew
Point
°C
Rel
Hum
%
Delta-T
°C
Wind Press
QNH
hPa
Press
MSL
hPa
Rain since
9am
mm
Dir  Spd
km/h
Gust
km/h
Spd
kts
Gust
kts
13/05:00am 8.3 5.2 7.2 93 0.5 WSW 13 20 7 11 1019.5 1018.7 0.0
13/04:30am 8.7 5.2 7.2 90 0.7 WSW 15 22 8 12 1019.8 1019.0 0.0
13/04:00am 8.9 5.6 6.5 85 1.1 WSW 13 20 7 11 1019.7 1018.9 0.0
13/03:30am 8.7 6.0 5.8 82 1.3 SW 9 13 5 7 1020.0 1019.2 0.0
13/03:00am 8.9 6.2 5.5 79 1.6 W 9 13 5 7 1020.0 1019.2 0.0
13/02:30am 9.0 5.8 5.2 77 1.7 SW 11 17 6 9 1020.4 1019.6 0.0
13/02:00am 8.9 5.6 4.7 75 1.9 WSW 11 20 6 11 1020.7 1019.9 0.0
13/01:30am 8.8 5.1 4.6 75 1.9 SW 13 22 7 12 1020.9 1020.1 0.0
13/01:00am 8.6 4.9 4.2 74 2.0 SW 13 20 7 11 1021.0 1020.2 0.0
13/12:30am 7.9 3.7 3.9 76 1.8 SW 15 24 8 13 1021.3 1020.6 0.0
13/12:00am 7.9 3.3 3.9 76 1.8 SW 17 26 9 14 1021.4 1020.7 0.0
 
Date/Time
CDT
Temp
°C
App
Temp
°C
Dew
Point
°C
Rel
Hum
%
Delta-T
°C
Wind Press
QNH
hPa
Press
MSL
hPa
Rain since
9am
mm
Dir  Spd
km/h
Gust
km/h
Spd
kts
Gust
kts
12/11:30pm 8.3 3.7 3.9 74 1.9 SW 17 28 9 15 1021.3 1020.6 0.0
12/11:00pm 8.5 3.3 3.6 71 2.2 SW 20 33 11 18 1021.2 1020.5 0.0
12/10:30pm 8.8 4.3 4.0 72 2.1 SW 17 26 9 14 1021.2 1020.5 0.0
12/10:00pm 8.8 4.3 4.4 74 2.0 SW 17 22 9 12 1021.0 1020.2 0.0
12/09:30pm 8.5 4.6 3.6 71 2.2 SW 13 19 7 10 1020.7 1019.9 0.0
12/09:00pm 8.8 4.9 3.4 69 2.4 SW 13 19 7 10 1020.6 1019.8 0.0
12/08:30pm 9.3 5.0 3.3 66 2.6 SSW 15 24 8 13 1020.4 1019.6 0.0
12/08:00pm 9.8 5.9 3.3 64 2.9 SSW 13 19 7 10 1020.1 1019.3 0.0
12/07:30pm 11.2 6.1 2.8 56 3.7 SW 19 28 10 15 1019.6 1018.8 0.0
12/07:00pm 12.3 7.2 3.3 54 4.1 SW 19 32 10 17 1019.2 1018.4 0.0
12/06:30pm 13.4 7.5 4.0 53 4.3 SW 24 37 13 20 1018.5 1017.7 0.0
12/06:00pm 13.7 7.1 2.3 46 5.1 WSW 26 43 14 23 1018.2 1017.4 0.0
12/05:42pm 13.7 6.8 2.3 46 5.1 WSW 28 46 15 25 1017.9 1017.1 0.0
12/05:30pm 14.0 7.6 3.2 48 4.9 WSW 26 41 14 22 1017.9 1017.1 0.0
12/05:11pm 14.4 7.6 2.9 46 5.2 WSW 28 46 15 25 1017.7 1016.9 0.0
12/05:00pm 13.8 6.2 3.0 48 4.9 WSW 32 46 17 25 1017.6 1016.8 0.0
12/04:54pm 14.0 7.2 2.9 47 5.1 WSW 28 46 15 25 1017.5 1016.7 0.0
12/04:30pm 13.6 7.4 4.2 53 4.4 WSW 26 39 14 21 1017.5 1016.7 0.0
12/04:14pm 13.9 7.2 3.7 50 4.7 WSW 28 46 15 25 1017.2 1016.4 0.0
12/04:00pm 13.2 7.8 4.6 56 4.0 WSW 22 39 12 21 1017.3 1016.5 0.0
12/03:41pm 13.9 7.2 3.7 50 4.7 WSW 28 46 15 25 1017.2 1016.4 0.0
12/03:30pm 15.4 9.5 3.9 46 5.4 WSW 24 43 13 23 1017.3 1016.5 0.0
12/03:00pm 15.0 8.3 3.5 46 5.3 WSW 28 46 15 25 1017.3 1016.5 0.0
12/02:30pm 14.8 7.2 2.7 44 5.5 WSW 32 52 17 28 1017.3 1016.5 0.0
12/02:00pm 14.0 6.1 1.3 42 5.6 WSW 32 52 17 28 1017.3 1016.5 0.0
12/01:30pm 13.5 6.5 2.1 46 5.1 WSW 28 48 15 26 1017.1 1016.3 0.0
12/01:00pm 12.9 6.1 3.3 52 4.4 WSW 28 48 15 26 1017.2 1016.4 0.0
12/12:53pm 13.2 6.5 3.8 53 4.3 WSW 28 48 15 26 1017.1 1016.3 0.0
12/12:30pm 13.5 7.5 3.6 51 4.5 WSW 24 44 13 24 1017.1 1016.3 0.0
12/12:00pm 11.8 5.2 4.1 59 3.5 WSW 28 46 15 25 1016.9 1016.1 0.0
12/11:59am 11.9 5.3 4.2 59 3.5 WSW 28 46 15 25 1016.9 1016.1 0.0
12/11:30am 12.5 6.2 3.7 55 4.0 WSW 26 44 14 24 1016.8 1016.0 0.0
12/11:01am 12.6 5.8 3.3 53 4.2 WSW 28 46 15 25 1016.7 1015.9 0.0
12/11:00am 12.7 5.6 3.4 53 4.2 WSW 30 46 16 25 1016.7 1015.9 0.0
12/10:37am 10.4 4.0 5.4 71 2.3 WSW 28 46 15 25 1016.7 1015.9 0.0
12/10:30am 11.0 6.7 5.3 68 2.7 SW 17 32 9 17 1016.5 1015.7 0.0
12/10:00am 10.9 4.7 4.4 64 3.0 WSW 26 43 14 23 1016.2 1015.3 0.0
12/09:30am 11.4 5.6 4.2 61 3.3 SW 24 43 13 23 1015.8 1015.0 0.0
12/09:00am 11.5 6.2 5.2 65 3.0 WSW 22 39 12 21 1015.5 1014.7 0.0
12/08:30am 10.2 4.9 5.2 71 2.3 SW 22 41 12 22 1015.2 1014.4 0.0
12/08:00am 9.8 4.9 4.2 68 2.5 SW 19 30 10 16 1014.7 1013.9 0.0
12/07:30am 9.4 5.2 3.6 67 2.6 SW 15 20 8 11 1014.3 1013.5 0.0
12/07:00am 9.3 4.6 3.1 65 2.7 SW 17 28 9 15 1013.9 1013.0 0.0
12/06:30am 9.0 4.3 3.4 68 2.5 SW 17 26 9 14 1013.5 1012.6 0.0
12/06:00am 9.0 4.3 5.0 76 1.8 SW 19 28 10 15 1012.9 1012.1 0.0
12/05:30am 9.0 4.7 5.2 77 1.7 SW 17 24 9 13 1012.3 1011.5 0.0
12/05:00am 8.9 4.1 4.7 75 1.9 SW 19 32 10 17 1011.9 1011.1 0.0
12/04:30am 8.2 4.1 4.2 76 1.8 SW 15 24 8 13 1011.6 1010.7 0.0
12/04:00am 9.0 4.6 4.8 75 1.9 SW 17 26 9 14 1011.5 1010.6 0.0
12/03:30am 9.4 5.8 5.2 75 1.9 WSW 13 26 7 14 1011.2 1010.3 0.0
12/03:00am 9.4 5.4 5.0 74 2.0 SW 15 24 8 13 1011.1 1010.2 0.0
12/02:30am 9.2 5.2 5.0 75 1.9 SW 15 24 8 13 1011.1 1010.2 0.0
12/02:00am 9.4 5.0 5.0 74 2.0 SW 17 26 9 14 1010.9 1010.0 0.0
12/01:30am 9.9 4.7 5.7 75 2.0 SSW 22 37 12 20 1010.5 1009.6 0.0
12/01:00am 10.1 6.6 7.0 81 1.5 SSW 15 30 8 16 1010.1 1009.3 0.0
12/12:30am 10.6 5.7 8.4 86 1.1 SSW 24 35 13 19 1009.7 1008.9 0.0
12/12:00am 11.4 7.3 8.8 84 1.3 SW 20 32 11 17 1009.3 1008.5 0.0
 
Date/Time
CDT
Temp
°C
App
Temp
°C
Dew
Point
°C
Rel
Hum
%
Delta-T
°C
Wind Press
QNH
hPa
Press
MSL
hPa
Rain since
9am
mm
Dir  Spd
km/h
Gust
km/h
Spd
kts
Gust
kts
11/11:30pm 11.8 7.1 9.4 85 1.2 SSW 24 39 13 21 1008.6 1007.7 0.0
11/11:00pm 12.6 8.9 10.3 86 1.2 SSW 20 41 11 22 1008.1 1007.2 0.0
11/10:30pm 14.3 11.3 10.5 78 2.0 S 17 28 9 15 1006.8 1005.9 0.0
11/10:00pm 15.3 12.3 10.7 74 2.5 W 17 26 9 14 1005.5 1004.6 0.0
11/09:30pm 17.1 13.2 8.5 57 4.5 W 19 30 10 16 1005.2 1004.3 0.0
11/09:00pm 18.6 15.7 6.4 45 6.2 W 11 19 6 10 1004.5 1003.7 0.0
11/08:30pm 19.2 14.6 6.7 44 6.4 WSW 20 30 11 16 1004.4 1003.5 0.0
11/08:00pm 20.8 15.2 5.6 37 7.7 WSW 24 39 13 21 1003.6 1002.7 0.0
11/07:42pm 25.6 19.0 2.3 22 11.4 WNW 26 48 14 26 1003.0 1002.1 0.0
11/07:30pm 27.9 20.7 -5.2 11 14.5 NNW 24 41 13 22 1002.2 1001.3 0.0
11/07:00pm 28.0 20.9 -4.0 12 14.3 NNW 24 43 13 23 1002.4 1001.5 0.0
11/06:31pm 27.9 20.1 -4.1 12 14.2 NW 28 50 15 27 1002.8 1001.9 0.0
11/06:30pm 28.1 20.5 -5.1 11 14.6 NW 26 50 14 27 1002.9 1002.0 0.0
11/06:07pm 28.1 20.3 -3.9 12 14.3 NW 28 48 15 26 1003.0 1002.1 0.0
11/06:00pm 27.8 20.1 -3.1 13 14.1 NW 28 43 15 23 1003.2 1002.3 0.0
11/05:54pm 27.6 19.7 -4.3 12 14.1 NNW 28 46 15 25 1003.0 1002.1 0.0
11/05:30pm 26.9 20.0 -2.8 14 13.5 NNW 24 37 13 20 1003.4 1002.5 0.0
11/05:00pm 27.1 20.2 -2.7 14 13.5 NNW 24 41 13 22 1004.5 1003.7 0.0
11/04:37pm 27.2 19.5 -2.6 14 13.5 NW 28 46 15 25 1004.8 1003.9 0.0
11/04:30pm 27.5 20.5 -3.3 13 13.9 NW 24 41 13 22 1004.8 1003.9 0.0
11/04:00pm 27.0 20.2 -1.8 15 13.3 NNW 24 44 13 24 1005.4 1004.5 0.0
11/03:31pm 27.7 20.0 -3.2 13 14.0 NW 28 52 15 28 1006.0 1005.1 0.0
11/03:30pm 27.8 20.1 -3.1 13 14.0 NW 28 43 15 23 1006.0 1005.1 0.0
11/03:01pm 28.2 20.5 -2.8 13 14.2 NNW 28 48 15 26 1006.4 1005.5 0.0
11/03:00pm 28.7 21.7 -0.5 15 14.0 NNW 26 43 14 23 1006.4 1005.5 0.0
11/02:30pm 27.6 19.9 -3.3 13 14.0 NW 28 48 15 26 1007.0 1006.2 0.0
11/02:00pm 27.3 19.5 -3.5 13 13.8 NW 28 50 15 27 1007.6 1006.7 0.0
11/01:36pm 26.9 19.2 -2.8 14 13.4 NW 28 46 15 25 1007.7 1006.8 0.0
11/01:30pm 27.2 19.7 -1.7 15 13.4 NW 28 44 15 24 1007.8 1006.9 0.0
11/01:00pm 26.6 18.1 -2.1 15 13.1 NW 33 52 18 28 1007.8 1006.9 0.0
11/12:30pm 26.4 18.3 0.9 19 12.3 NW 33 61 18 33 1008.3 1007.4 0.0
11/12:00pm 25.8 16.9 0.5 19 12.1 NW 37 57 20 31 1008.4 1007.5 0.0
11/11:30am 24.6 15.4 -1.3 18 11.8 NW 37 57 20 31 1008.5 1007.6 0.0
11/11:00am 23.9 15.7 0.3 21 11.0 NW 33 54 18 29 1008.8 1007.9 0.0
11/10:30am 23.6 15.7 1.3 23 10.6 NW 32 50 17 27 1009.1 1008.2 0.0
11/10:09am 23.0 15.8 0.8 23 10.4 NW 28 46 15 25 1009.2 1008.3 0.0
11/10:00am 22.8 15.4 1.8 25 10.0 NW 30 44 16 24 1009.3 1008.5 0.0
11/09:30am 22.0 14.3 2.2 27 9.5 NW 32 52 17 28 1009.4 1008.6 0.0
11/09:00am 21.3 13.9 1.6 27 9.3 NW 30 59 16 32 1009.4 1008.6 0.0
11/08:30am 20.6 12.5 1.0 27 9.1 NW 33 52 18 28 1009.5 1008.7 0.0
11/08:00am 19.6 11.6 0.1 27 8.8 NW 32 50 17 27 1009.6 1008.8 0.0
11/07:52am 19.2 11.5 -0.2 27 8.6 NW 30 50 16 27 1009.7 1008.9 0.0
11/07:30am 18.6 10.5 -0.2 28 8.4 NW 32 46 17 25 1009.8 1009.0 0.0
11/07:17am 18.6 10.4 -0.7 27 8.5 NW 32 50 17 27 1009.9 1009.1 0.0
11/07:00am 18.2 10.8 -0.6 28 8.2 NW 28 43 15 23 1010.0 1009.2 0.0
11/06:30am 18.0 10.2 -0.8 28 8.2 NW 30 46 16 25 1009.9 1009.1 0.0
11/06:00am 17.8 10.4 -0.9 28 8.1 NW 28 41 15 22 1010.0 1009.2 0.0
11/05:30am 17.1 11.1 -1.5 28 7.9 NNW 20 32 11 17 1009.9 1009.1 0.0
11/05:00am 16.1 10.7 -1.5 30 7.4 NNW 17 30 9 16 1010.0 1009.2 0.0
11/04:30am 13.0 9.1 1.0 44 5.2 NNE 11 15 6 8 1010.2 1009.4 0.0
11/04:00am 13.1 8.8 1.1 44 5.2 NNE 13 17 7 9 1010.6 1009.7 0.0
11/03:30am 12.7 8.9 2.0 48 4.7 NNE 11 15 6 8 1011.0 1010.1 0.0
11/03:00am 12.6 9.2 1.9 48 4.7 NNE 9 13 5 7 1011.3 1010.4 0.0
11/02:30am 13.1 9.6 1.5 45 5.1 N 9 13 5 7 1012.0 1011.2 0.0
11/02:00am 13.5 10.0 1.2 43 5.4 N 9 11 5 6 1012.4 1011.6 0.0
11/01:30am 14.8 10.9 1.0 39 6.1 NNW 11 13 6 7 1013.0 1012.2 0.0
11/01:00am 13.4 9.8 0.8 42 5.4 N 9 13 5 7 1013.8 1012.9 0.0
11/12:30am 12.7 9.1 0.5 43 5.2 N 9 13 5 7 1014.1 1013.3 0.0
11/12:00am 13.4 10.0 -0.3 39 5.8 N 7 9 4 5 1014.3 1013.5 0.0
 
Date/Time
CDT
Temp
°C
App
Temp
°C
Dew
Point
°C
Rel
Hum
%
Delta-T
°C
Wind Press
QNH
hPa
Press
MSL
hPa
Rain since
9am
mm
Dir  Spd
km/h
Gust
km/h
Spd
kts
Gust
kts
10/11:30pm 13.1 9.9 0.5 42 5.4 N 7 9 4 5 1014.5 1013.7 0.0
10/11:00pm 13.0 9.6 2.0 47 4.9 NNE 9 11 5 6 1014.7 1013.9 0.0
10/10:30pm 12.8 9.5 2.6 50 4.6 NNE 9 9 5 5 1015.2 1014.4 0.0
10/10:00pm 13.3 10.3 4.2 54 4.2 NNE 9 9 5 5 1015.4 1014.6 0.0
10/09:30pm 14.4 12.9 2.9 46 5.2 CALM 0 0 0 0 1015.4 1014.6 0.0
10/09:00pm 14.4 11.9 3.8 49 4.9 WSW 6 6 3 3 1015.4 1014.6 0.0
10/08:30pm 15.1 12.1 4.2 48 5.1 W 9 9 5 5 1015.2 1014.4 0.0
10/08:00pm 15.4 12.9 3.9 46 5.4 W 6 7 3 4 1015.3 1014.5 0.0
10/07:30pm 16.9 13.7 2.9 39 6.5 WNW 9 17 5 9 1015.4 1014.6 0.0
10/07:00pm 17.7 13.6 2.5 36 7.1 WNW 13 20 7 11 1015.4 1014.6 0.0
10/06:30pm 18.6 14.5 2.4 34 7.6 WNW 13 20 7 11 1015.6 1014.8 0.0
10/06:00pm 19.0 14.5 2.4 33 7.8 W 15 22 8 12 1015.8 1015.0 0.0
10/05:30pm 19.5 15.4 2.4 32 8.0 WNW 13 22 7 12 1015.7 1014.9 0.0
10/05:00pm 19.5 15.1 2.8 33 7.9 WNW 15 24 8 13 1015.5 1014.7 0.0
10/04:30pm 19.3 14.6 3.1 34 7.7 W 17 26 9 14 1015.7 1014.9 0.0
10/04:00pm 19.4 15.0 2.7 33 7.9 NW 15 24 8 13 1016.2 1015.3 0.0
10/03:30pm 19.2 15.5 4.2 37 7.3 WNW 13 26 7 14 1016.5 1015.7 0.0
10/03:00pm 18.8 14.8 4.9 40 6.8 WNW 15 24 8 13 1017.1 1016.3 0.0
10/02:30pm 18.4 14.4 4.9 41 6.6 W 15 20 8 11 1017.5 1016.7 0.0
10/02:00pm 16.6 12.8 5.9 49 5.3 W 15 20 8 11 1017.9 1017.1 0.0
10/01:30pm 16.5 13.2 8.2 58 4.3 W 15 22 8 12 1018.3 1017.5 0.0
10/01:00pm 16.1 13.1 7.6 57 4.3 W 13 22 7 12 1018.7 1018.0 0.0
10/12:30pm 15.6 12.1 7.4 58 4.1 W 15 20 8 11 1019.2 1018.4 0.0
10/12:00pm 15.2 12.6 7.7 61 3.8 WSW 11 19 6 10 1019.4 1018.6 0.0
10/11:30am 13.7 10.4 6.3 61 3.6 W 13 20 7 11 1019.7 1018.9 0.0
10/11:00am 13.6 10.9 7.2 65 3.2 W 11 19 6 10 1019.9 1019.1 0.0
10/10:30am 13.3 10.6 7.3 67 3.0 WSW 11 20 6 11 1020.1 1019.3 0.0
10/10:00am 12.7 9.9 7.0 68 2.8 W 11 22 6 12 1020.2 1019.4 0.0
10/09:30am 12.7 9.3 7.6 71 2.5 WSW 15 22 8 12 1020.2 1019.4 0.0
10/09:00am 11.5 8.7 7.0 74 2.2 W 11 19 6 10 1020.3 1019.5 0.0
10/08:30am 10.9 8.1 6.8 76 2.0 WSW 11 17 6 9 1020.3 1019.5 0.0
10/08:00am 10.4 7.5 6.5 77 1.9 WSW 11 19 6 10 1020.1 1019.3 0.0
10/07:30am 10.0 7.1 6.5 79 1.7 SW 11 17 6 9 1019.8 1019.0 0.0
10/07:00am 9.6 6.7 6.3 80 1.6 SW 11 17 6 9 1019.6 1018.8 0.0
10/06:30am 9.4 6.1 6.3 81 1.5 WSW 13 19 7 10 1019.4 1018.6 0.0
10/06:00am 9.4 6.5 6.3 81 1.5 WSW 11 20 6 11 1019.2 1018.4 0.0
10/05:30am 9.4 6.0 6.1 80 1.5 SW 13 20 7 11 1018.9 1018.2 0.0

Other formats

Comma delimited format used in spreadsheet applications
http://www.bom.gov.au/fwo/IDS60801/IDS60801.94683.axf

JavaScript Object Notation format (JSON) in row-major order
http://www.bom.gov.au/fwo/IDS60801/IDS60801.94683.json

Data quality

Most of these data are generated automatically and are frequently updated. Quality checks on data are not normally performed. It is possible for incorrect values to appear. Refer to information at About Latest Weather Observations and please check the disclaimer before using these data.